Time;durP1;ratioP1;P1;durP2;ratioP2;P2;SDS_P1;SDS_P2;PMS_P1;PMS_P2;Temp;Humidity;BMP_temperature;BMP_pressure;BME280_temperature;BME280_humidity;BME280_pressure;Samples;Min_cycle;Max_cycle;Signal;HPM_P1;HPM_P2
2023/09/13 00:01:18;;;;;;;5.13;4.83;;;;;;;20.30;100.00;99851.03;4996050;28;20681;-81
2023/09/13 00:03:47;;;;;;;5.90;5.40;;;;;;;20.28;100.00;99855.56;4995048;28;20239;-80
2023/09/13 00:06:14;;;;;;;5.63;5.23;;;;;;;20.33;100.00;99870.19;4995199;28;20246;-79
2023/09/13 00:08:41;;;;;;;5.50;5.10;;;;;;;20.33;100.00;99864.88;4996381;28;20237;-81
2023/09/13 00:11:08;;;;;;;5.43;5.10;;;;;;;20.34;100.00;99869.25;4997002;28;20305;-81
2023/09/13 00:13:35;;;;;;;6.50;5.07;;;;;;;20.38;99.98;99878.69;4996628;28;20230;-81
2023/09/13 00:16:01;;;;;;;5.47;5.03;;;;;;;20.37;99.61;99881.44;4998084;28;20214;-81
2023/09/13 00:18:28;;;;;;;5.27;4.97;;;;;;;20.35;99.68;99886.00;4988250;28;20205;-81
2023/09/13 00:20:54;;;;;;;6.20;5.80;;;;;;;20.37;99.30;99895.53;4997698;28;20204;-81
2023/09/13 00:23:21;;;;;;;5.80;5.40;;;;;;;20.36;99.14;99890.34;4996850;28;20229;-80
2023/09/13 00:25:49;;;;;;;6.97;5.60;;;;;;;20.37;99.16;99897.34;4991220;28;20215;-81
2023/09/13 00:28:16;;;;;;;6.23;5.73;;;;;;;20.33;99.50;99895.84;4992374;28;20273;-81
2023/09/13 00:30:42;;;;;;;5.60;5.20;;;;;;;20.30;100.00;99888.13;4997656;28;20311;-81
2023/09/13 00:33:09;;;;;;;6.03;5.53;;;;;;;20.32;100.00;99883.56;4996896;28;20228;-80
2023/09/13 00:35:36;;;;;;;5.67;5.27;;;;;;;20.30;100.00;99886.31;4978080;28;20226;-81
2023/09/13 00:38:02;;;;;;;6.27;5.07;;;;;;;20.32;100.00;99896.81;4977866;28;20227;-81
2023/09/13 00:40:29;;;;;;;6.43;5.40;;;;;;;20.30;100.00;99888.97;4978301;28;20591;-80
2023/09/13 00:42:57;;;;;;;6.73;5.00;;;;;;;20.29;100.00;99889.91;4989590;28;20258;-80
2023/09/13 00:45:23;;;;;;;5.40;4.90;;;;;;;20.29;100.00;99889.06;4999191;28;20210;-80
2023/09/13 00:47:50;;;;;;;5.77;5.37;;;;;;;20.31;100.00;99903.06;4997036;28;20209;-79
2023/09/13 00:50:18;;;;;;;5.93;5.60;;;;;;;20.29;100.00;99903.16;4988094;28;20211;-79
2023/09/13 00:52:47;;;;;;;5.40;5.00;;;;;;;20.03;100.00;99905.78;4998531;28;20231;-79
2023/09/13 00:55:16;;;;;;;5.80;5.40;;;;;;;19.40;100.00;99874.59;4999885;28;20770;-79
2023/09/13 00:57:43;;;;;;;6.80;6.10;;;;;;;19.13;100.00;99813.75;4998737;28;20257;-81
2023/09/13 01:00:13;;;;;;;6.87;6.37;;;;;;;19.19;100.00;99797.47;4994932;28;20205;-79
2023/09/13 01:02:41;;;;;;;6.67;6.27;;;;;;;19.22;100.00;99792.81;4994384;28;20231;-80
2023/09/13 01:05:09;;;;;;;6.77;6.17;;;;;;;19.33;100.00;99785.97;4994395;28;20203;-79
2023/09/13 01:07:36;;;;;;;5.90;5.50;;;;;;;19.55;100.00;99780.09;5001633;28;20578;-79
2023/09/13 01:10:03;;;;;;;6.27;5.30;;;;;;;19.72;100.00;99779.88;4985692;28;20233;-79
2023/09/13 01:12:30;;;;;;;5.87;5.37;;;;;;;19.87;100.00;99793.00;4994547;28;20206;-79
2023/09/13 01:14:57;;;;;;;6.00;5.57;;;;;;;19.94;100.00;99789.84;4974538;28;20211;-79
2023/09/13 01:17:33;;;;;;;5.40;5.03;;;;;;;20.00;100.00;99797.38;4977017;28;20208;-78
2023/09/13 01:20:09;;;;;;;6.20;5.60;;;;;;;20.05;100.00;99807.63;4980383;28;20664;-79
2023/09/13 01:23:06;;;;;;;5.80;5.30;;;;;;;20.09;100.00;99809.13;4990319;28;20228;-80
2023/09/13 01:26:05;;;;;;;5.67;5.17;;;;;;;20.16;100.00;99814.88;4993113;28;20230;-80
2023/09/13 01:28:36;;;;;;;5.67;5.23;;;;;;;20.18;100.00;99818.25;4993322;28;20712;-81
2023/09/13 01:31:05;;;;;;;5.50;5.10;;;;;;;20.16;100.00;99830.78;4993907;28;20242;-81
2023/09/13 01:33:31;;;;;;;4.77;4.47;;;;;;;20.18;100.00;99836.81;4986042;28;20227;-80
2023/09/13 01:35:58;;;;;;;5.97;4.63;;;;;;;20.20;100.00;99841.03;4993437;28;20209;-79
2023/09/13 01:38:24;;;;;;;5.67;5.30;;;;;;;20.22;100.00;99843.59;4993886;28;20201;-79
2023/09/13 01:40:53;;;;;;;5.37;5.03;;;;;;;20.23;100.00;99850.56;4993303;28;20574;-79
2023/09/13 01:43:20;;;;;;;5.57;5.13;;;;;;;20.27;100.00;99849.41;4993306;28;20242;-79
2023/09/13 01:45:49;;;;;;;5.00;4.60;;;;;;;20.27;100.00;99849.41;4993371;28;20210;-79
2023/09/13 01:48:17;;;;;;;5.23;4.93;;;;;;;20.23;100.00;99856.72;4987294;28;20247;-80
2023/09/13 01:50:44;;;;;;;4.97;4.67;;;;;;;20.21;100.00;99858.63;4975655;28;20219;-78
2023/09/13 01:53:11;;;;;;;6.87;5.07;;;;;;;20.21;100.00;99857.78;4993599;28;20227;-79
2023/09/13 01:55:37;;;;;;;4.63;4.33;;;;;;;20.20;100.00;99854.28;4992608;28;20214;-80
2023/09/13 01:58:04;;;;;;;4.77;4.37;;;;;;;20.22;100.00;99854.19;4974344;28;20207;-79
2023/09/13 02:00:31;;;;;;;5.33;4.93;;;;;;;20.21;100.00;99860.44;4974657;28;20239;-78
2023/09/13 02:02:58;;;;;;;5.57;5.13;;;;;;;20.13;100.00;99858.31;4994017;28;20234;-79
2023/09/13 02:05:25;;;;;;;5.60;5.10;;;;;;;20.20;100.00;99848.16;4997144;28;20301;-79
2023/09/13 02:07:51;;;;;;;5.27;4.87;;;;;;;20.15;100.00;99848.44;5002843;28;20211;-79
2023/09/13 02:10:18;;;;;;;5.30;5.00;;;;;;;20.21;100.00;99848.03;4977698;28;20225;-79
2023/09/13 02:12:44;;;;;;;5.67;5.17;;;;;;;20.19;100.00;99851.75;4994652;28;20228;-79
2023/09/13 02:15:12;;;;;;;6.90;5.03;;;;;;;20.23;100.00;99856.72;4997159;28;20203;-82
2023/09/13 02:17:38;;;;;;;5.83;4.20;;;;;;;20.26;100.00;99857.47;4996598;28;20226;-78
2023/09/13 02:20:11;;;;;;;5.30;4.80;;;;;;;20.12;99.90;99863.69;4977119;28;20200;-79
2023/09/13 02:22:37;;;;;;;5.90;5.40;;;;;;;20.00;100.00;99868.91;4993670;28;20402;-81
2023/09/13 02:25:04;;;;;;;7.97;5.57;;;;;;;19.84;100.00;99871.72;4997529;28;20568;-81
2023/09/13 02:27:32;;;;;;;7.27;6.67;;;;;;;19.51;100.00;99853.59;4998214;28;20654;-79
2023/09/13 02:29:58;;;;;;;6.90;6.40;;;;;;;19.29;100.00;99810.97;5002815;28;20232;-81
2023/09/13 02:32:25;;;;;;;6.80;6.30;;;;;;;19.19;100.00;99784.25;4992288;28;20218;-79
2023/09/13 02:34:51;;;;;;;7.10;6.20;;;;;;;18.99;100.00;99761.72;4998043;28;20217;-79
2023/09/13 02:37:19;;;;;;;6.43;5.97;;;;;;;19.00;100.00;99748.38;4997136;28;20214;-78
2023/09/13 02:39:46;;;;;;;6.40;6.00;;;;;;;18.91;100.00;99743.72;4998729;28;20214;-79
2023/09/13 02:42:12;;;;;;;6.50;6.00;;;;;;;18.99;100.00;99743.22;4996952;28;20234;-79
2023/09/13 02:44:39;;;;;;;7.03;6.53;;;;;;;18.94;100.00;99758.53;4997604;28;20222;-80
2023/09/13 02:47:06;;;;;;;7.77;6.40;;;;;;;18.83;100.00;99754.78;4998504;28;20604;-78
2023/09/13 02:49:33;;;;;;;6.37;5.80;;;;;;;18.86;100.00;99751.09;4990063;28;20234;-79
2023/09/13 02:51:59;;;;;;;6.70;6.20;;;;;;;18.83;100.00;99751.28;4997647;28;20203;-79
2023/09/13 02:54:27;;;;;;;6.80;6.20;;;;;;;18.66;100.00;99747.88;4999165;28;20221;-81
2023/09/13 02:56:54;;;;;;;6.50;6.00;;;;;;;18.74;100.00;99733.34;4997445;28;20704;-79
2023/09/13 02:59:20;;;;;;;5.00;4.63;;;;;;;18.98;100.00;99750.28;4997602;28;20212;-80
2023/09/13 03:01:47;;;;;;;5.50;5.10;;;;;;;19.13;100.00;99766.97;4997837;28;20217;-80
2023/09/13 03:04:13;;;;;;;6.57;6.03;;;;;;;19.01;100.00;99779.19;4995665;28;20225;-79
2023/09/13 03:06:40;;;;;;;6.67;6.27;;;;;;;19.16;100.00;99784.44;4998171;28;20221;-79
2023/09/13 03:09:07;;;;;;;6.37;5.87;;;;;;;19.19;100.00;99789.53;4997486;28;20269;-79
2023/09/13 03:11:37;;;;;;;7.53;7.00;;;;;;;19.07;100.00;99793.81;4997500;28;20206;-81
2023/09/13 03:14:03;;;;;;;7.33;6.90;;;;;;;18.77;100.00;99778.06;4996471;28;20709;-79
2023/09/13 03:16:29;;;;;;;8.23;7.60;;;;;;;18.76;100.00;99771.94;4998183;28;20219;-82
2023/09/13 03:18:56;;;;;;;8.50;7.90;;;;;;;18.94;100.00;99774.41;4986465;28;20202;-79
2023/09/13 03:21:22;;;;;;;9.93;9.13;;;;;;;18.89;100.00;99772.06;4987382;28;20824;-79
2023/09/13 03:23:50;;;;;;;10.37;9.30;;;;;;;18.77;100.00;99780.72;4999513;28;20234;-81
2023/09/13 03:26:18;;;;;;;10.53;9.73;;;;;;;18.35;100.00;99767.47;4997669;28;20206;-81
2023/09/13 03:28:48;;;;;;;11.50;10.50;;;;;;;18.28;100.00;99763.50;4998594;28;20611;-81
2023/09/13 03:31:16;;;;;;;12.70;11.70;;;;;;;18.30;100.00;99758.13;4998196;28;20209;-81
2023/09/13 03:33:43;;;;;;;11.77;10.80;;;;;;;18.29;100.00;99759.91;4996771;28;20587;-81
2023/09/13 03:36:11;;;;;;;13.33;12.23;;;;;;;18.24;100.00;99767.28;4998211;28;20275;-81
2023/09/13 03:38:39;;;;;;;14.20;13.00;;;;;;;18.12;100.00;99778.63;4997604;28;20679;-79
2023/09/13 03:41:06;;;;;;;14.83;13.53;;;;;;;18.23;100.00;99776.97;4990224;28;20298;-79
2023/09/13 03:43:33;;;;;;;16.80;15.20;;;;;;;18.23;100.00;99792.00;4996986;28;20234;-81
2023/09/13 03:46:01;;;;;;;17.20;15.60;;;;;;;18.34;100.00;99797.47;4994617;28;20217;-78
2023/09/13 03:48:30;;;;;;;17.90;16.40;;;;;;;18.46;100.00;99815.22;4991002;28;20217;-82
2023/09/13 03:50:56;;;;;;;18.63;16.93;;;;;;;18.37;100.00;99823.69;4979865;28;20230;-79
2023/09/13 03:53:23;;;;;;;20.83;16.93;;;;;;;18.32;100.00;99828.44;4997761;28;20339;-80
2023/09/13 03:55:49;;;;;;;16.37;14.87;;;;;;;18.59;100.00;99830.31;4998206;28;20212;-82
2023/09/13 03:58:16;;;;;;;15.30;14.10;;;;;;;18.80;100.00;99841.38;4997535;28;20216;-82
2023/09/13 04:00:42;;;;;;;14.53;13.23;;;;;;;18.72;100.00;99855.06;4998164;28;20619;-82
2023/09/13 04:03:10;;;;;;;12.40;11.40;;;;;;;18.78;100.00;99862.59;4988663;28;20234;-79
2023/09/13 04:05:37;;;;;;;12.47;11.37;;;;;;;18.62;100.00;99869.78;4997450;28;20210;-79
2023/09/13 04:08:04;;;;;;;9.83;9.03;;;;;;;18.84;100.00;99871.97;4996494;28;20618;-79
2023/09/13 04:10:30;;;;;;;10.27;9.47;;;;;;;18.96;100.00;99881.78;4996963;28;20238;-81
2023/09/13 04:12:57;;;;;;;10.03;9.33;;;;;;;18.94;100.00;99894.25;4996733;28;20227;-82
2023/09/13 04:15:23;;;;;;;9.07;8.17;;;;;;;19.11;100.00;99916.16;4997722;28;20214;-79
2023/09/13 04:17:50;;;;;;;8.90;8.20;;;;;;;18.95;100.00;99924.19;4996168;28;20210;-82
2023/09/13 04:20:19;;;;;;;8.33;7.73;;;;;;;19.11;100.00;99917.03;4985580;28;20201;-81
2023/09/13 04:22:46;;;;;;;8.33;7.63;;;;;;;19.20;100.00;99918.22;4994616;28;20805;-82
2023/09/13 04:25:12;;;;;;;10.40;7.10;;;;;;;19.28;100.00;99937.09;4996826;28;20210;-81
2023/09/13 04:27:39;;;;;;;8.30;7.70;;;;;;;19.30;100.00;99942.31;4997442;28;20210;-77
2023/09/13 04:30:06;;;;;;;8.67;8.07;;;;;;;19.11;100.00;99948.75;4997949;28;20232;-82
2023/09/13 04:32:34;;;;;;;8.87;8.17;;;;;;;19.10;100.00;99956.78;4998551;28;20236;-83
2023/09/13 04:35:00;;;;;;;8.83;8.17;;;;;;;19.19;100.00;99959.72;4998041;28;20296;-82
2023/09/13 04:37:29;;;;;;;8.93;8.23;;;;;;;19.31;100.00;99975.78;4999189;28;20219;-82
2023/09/13 04:39:55;;;;;;;8.30;7.60;;;;;;;19.17;100.00;99985.44;4998194;28;20210;-82
2023/09/13 04:42:21;;;;;;;7.70;7.13;;;;;;;19.12;100.00;99978.72;4998364;28;20206;-82
2023/09/13 04:44:48;;;;;;;7.67;7.10;;;;;;;19.22;100.00;99985.97;4998788;28;20215;-82
2023/09/13 04:47:14;;;;;;;7.23;6.73;;;;;;;19.25;100.00;99990.25;4998906;28;20216;-82
2023/09/13 04:49:41;;;;;;;6.67;6.17;;;;;;;19.28;100.00;99994.47;4990304;28;20226;-82
2023/09/13 04:52:09;;;;;;;5.90;5.50;;;;;;;19.35;100.00;99998.47;4989978;28;20203;-82
2023/09/13 04:54:37;;;;;;;6.40;5.80;;;;;;;19.01;100.00;99995.25;4998191;28;20235;-82
2023/09/13 04:57:05;;;;;;;6.83;6.20;;;;;;;18.91;100.00;99967.66;5007172;28;20209;-82
2023/09/13 04:59:43;;;;;;;7.50;6.90;;;;;;;18.91;100.00;99960.59;4996084;28;20205;-79
2023/09/13 05:02:11;;;;;;;6.90;6.43;;;;;;;19.10;100.00;99959.44;4996491;28;20208;-79
2023/09/13 05:04:37;;;;;;;7.03;6.27;;;;;;;19.24;100.00;99965.56;4994293;28;20229;-79
2023/09/13 05:07:04;;;;;;;6.80;6.33;;;;;;;19.30;100.00;99966.13;4995916;28;20202;-79
2023/09/13 05:09:31;;;;;;;6.53;6.10;;;;;;;19.34;100.00;99978.22;4995837;28;20639;-80
2023/09/13 05:11:59;;;;;;;7.37;6.77;;;;;;;19.35;100.00;99986.06;4995765;28;20211;-79
2023/09/13 05:14:26;;;;;;;6.20;5.80;;;;;;;19.31;100.00;99992.50;4995965;28;20226;-81
2023/09/13 05:16:52;;;;;;;6.20;5.80;;;;;;;19.37;100.00;99983.34;4996181;28;20688;-80
2023/09/13 05:19:19;;;;;;;6.33;5.90;;;;;;;19.35;100.00;99990.53;4988105;28;20206;-79
2023/09/13 05:21:46;;;;;;;6.70;6.20;;;;;;;19.24;100.00;99991.19;4987506;28;20221;-81
2023/09/13 05:24:12;;;;;;;6.27;5.87;;;;;;;19.10;100.00;99972.66;4995639;28;20263;-80
2023/09/13 05:26:39;;;;;;;6.33;5.83;;;;;;;19.23;100.00;99960.38;4997086;28;20215;-82
2023/09/13 05:29:07;;;;;;;7.40;6.90;;;;;;;19.34;100.00;99963.19;4995948;28;20210;-81
2023/09/13 05:31:33;;;;;;;6.40;6.00;;;;;;;19.43;100.00;99977.66;4996005;28;20217;-79
2023/09/13 05:34:00;;;;;;;5.60;5.20;;;;;;;19.45;100.00;99976.59;4994625;28;20246;-80
2023/09/13 05:36:26;;;;;;;7.27;6.77;;;;;;;19.55;100.00;99981.31;5000756;28;20205;-79
2023/09/13 05:38:53;;;;;;;6.53;6.13;;;;;;;19.57;100.00;99982.91;4985867;28;20218;-80
2023/09/13 05:41:19;;;;;;;6.60;6.10;;;;;;;19.63;100.00;99979.03;5000623;28;20217;-81
2023/09/13 05:43:46;;;;;;;7.20;6.57;;;;;;;19.61;100.00;99981.75;5007396;28;20234;-78
2023/09/13 05:46:13;;;;;;;6.30;5.80;;;;;;;19.54;100.00;99975.16;4992686;28;20206;-78
2023/09/13 05:48:40;;;;;;;7.07;6.37;;;;;;;19.60;100.00;99979.22;4999454;28;20214;-81
2023/09/13 05:51:06;;;;;;;7.37;6.70;;;;;;;19.59;100.00;99991.59;4992429;28;20705;-80
2023/09/13 05:53:33;;;;;;;7.27;6.63;;;;;;;19.45;100.00;99987.19;4999106;28;20227;-81
2023/09/13 05:55:59;;;;;;;7.90;7.27;;;;;;;19.06;100.00;99964.06;4999466;28;20680;-81
2023/09/13 05:58:26;;;;;;;8.13;7.43;;;;;;;18.83;100.00;99933.75;5000078;28;20203;-81
2023/09/13 06:00:54;;;;;;;7.80;7.30;;;;;;;18.90;100.00;99927.13;5000604;28;20664;-81
2023/09/13 06:03:21;;;;;;;9.20;8.33;;;;;;;19.00;100.00;99924.75;4998707;28;20230;-80
2023/09/13 06:05:50;;;;;;;8.93;8.20;;;;;;;18.65;100.00;99923.31;5000116;28;20210;-81
2023/09/13 06:08:16;;;;;;;8.43;7.87;;;;;;;18.88;100.00;99913.16;4999946;28;20209;-81
2023/09/13 06:10:43;;;;;;;9.30;8.53;;;;;;;18.75;100.00;99928.03;5000039;28;20238;-81
2023/09/13 06:13:09;;;;;;;10.30;9.50;;;;;;;18.93;100.00;99923.44;4999720;28;20323;-80
2023/09/13 06:15:36;;;;;;;9.63;8.37;;;;;;;19.01;100.00;99924.69;5000559;28;20214;-81
2023/09/13 06:18:02;;;;;;;9.67;8.87;;;;;;;18.94;100.00;99936.56;4999955;28;20211;-81
2023/09/13 06:20:30;;;;;;;9.70;8.90;;;;;;;19.16;100.00;99940.53;4996178;28;20201;-81
2023/09/13 06:22:57;;;;;;;9.67;8.97;;;;;;;19.06;100.00;99945.53;4998220;28;20231;-80
2023/09/13 06:25:23;;;;;;;10.77;10.07;;;;;;;18.95;100.00;99940.94;5000624;28;20210;-80
2023/09/13 06:27:50;;;;;;;10.50;9.67;;;;;;;19.20;100.00;99944.69;4999519;28;20221;-82
2023/09/13 06:30:16;;;;;;;9.70;8.97;;;;;;;19.13;100.00;99953.97;4999156;28;20708;-80
2023/09/13 06:32:43;;;;;;;8.90;8.30;;;;;;;19.01;100.00;99953.78;5004623;28;20239;-79
2023/09/13 06:35:12;;;;;;;9.00;8.37;;;;;;;18.89;100.00;99965.13;4980249;28;20233;-80
2023/09/13 06:37:40;;;;;;;9.00;8.20;;;;;;;19.01;100.00;99956.41;4997225;28;20210;-81
2023/09/13 06:40:08;;;;;;;8.47;7.77;;;;;;;19.12;100.00;99954.91;5000353;28;20203;-82
2023/09/13 06:42:35;;;;;;;8.80;8.20;;;;;;;18.89;100.00;99948.38;4999202;28;20253;-80
2023/09/13 06:45:02;;;;;;;9.00;8.37;;;;;;;18.99;100.00;99950.38;4998735;28;20214;-81
2023/09/13 06:47:30;;;;;;;9.03;8.37;;;;;;;19.03;100.00;99959.81;4999632;28;20643;-81
2023/09/13 06:49:57;;;;;;;7.90;7.40;;;;;;;19.28;100.00;99974.16;4991975;28;20235;-80
2023/09/13 06:52:23;;;;;;;8.37;7.73;;;;;;;19.37;100.00;99983.34;4998902;28;20206;-80
2023/09/13 06:54:51;;;;;;;7.30;6.80;;;;;;;19.31;100.00;99981.91;4998564;28;20214;-81
2023/09/13 06:57:17;;;;;;;7.47;6.87;;;;;;;19.40;100.00;99996.34;5000439;28;20205;-78
2023/09/13 06:59:44;;;;;;;7.53;6.93;;;;;;;19.43;100.00;99996.19;5000064;28;20573;-80
2023/09/13 07:02:10;;;;;;;7.03;6.53;;;;;;;19.35;100.00;99994.00;5000489;28;20210;-80
2023/09/13 07:04:38;;;;;;;7.53;7.03;;;;;;;19.17;100.00;100003.94;4999306;28;20590;-80
2023/09/13 07:07:05;;;;;;;7.87;7.37;;;;;;;19.16;100.00;99999.59;5001615;28;20218;-79
2023/09/13 07:09:31;;;;;;;7.17;6.67;;;;;;;19.10;100.00;99993.84;5000608;28;20211;-79
2023/09/13 07:11:59;;;;;;;8.20;7.50;;;;;;;19.09;100.00;99989.47;4999848;28;20234;-78
2023/09/13 07:14:26;;;;;;;7.83;7.33;;;;;;;18.96;100.00;100003.44;4998416;28;20257;-79
2023/09/13 07:16:52;;;;;;;8.10;7.53;;;;;;;19.06;100.00;99993.16;4998441;28;20222;-79
2023/09/13 07:19:19;;;;;;;9.00;8.30;;;;;;;19.33;100.00;99997.72;4994572;28;20205;-81
2023/09/13 07:21:46;;;;;;;6.70;6.30;;;;;;;19.35;100.00;100012.53;4986746;28;20214;-80
2023/09/13 07:24:13;;;;;;;8.93;7.17;;;;;;;19.22;100.00;100009.78;4998259;28;20292;-79
2023/09/13 07:26:39;;;;;;;7.07;6.57;;;;;;;19.32;100.00;100015.34;4998612;28;20249;-80
2023/09/13 07:29:07;;;;;;;6.80;6.30;;;;;;;19.48;100.00;100020.53;4999268;28;20220;-80
2023/09/13 07:31:34;;;;;;;7.00;6.50;;;;;;;19.45;100.00;100037.47;4999232;28;20764;-80
2023/09/13 07:34:02;;;;;;;6.50;5.90;;;;;;;19.19;100.00;100041.75;4997688;28;20245;-79
2023/09/13 07:36:29;;;;;;;6.20;5.80;;;;;;;19.18;100.00;100042.66;4998730;28;20221;-80
2023/09/13 07:38:56;;;;;;;7.93;7.43;;;;;;;19.30;100.00;100045.53;4998297;28;20222;-80
2023/09/13 07:41:22;;;;;;;5.67;5.37;;;;;;;19.37;100.00;100060.94;4998726;28;20207;-80
2023/09/13 07:43:49;;;;;;;6.83;6.43;;;;;;;19.35;100.00;100057.53;4997952;28;20246;-81
2023/09/13 07:46:17;;;;;;;6.33;5.73;;;;;;;19.21;100.00;100057.53;4998637;28;20260;-81
2023/09/13 07:48:43;;;;;;;7.10;6.60;;;;;;;19.40;100.00;100063.38;4997340;28;20215;-81
2023/09/13 07:51:10;;;;;;;7.17;6.67;;;;;;;19.57;100.00;100067.63;4982176;28;20238;-81
2023/09/13 07:53:37;;;;;;;7.53;7.03;;;;;;;19.58;100.00;100085.25;4996800;28;20237;-80
2023/09/13 07:56:03;;;;;;;8.80;8.20;;;;;;;19.51;100.00;100117.47;4997605;28;20210;-81
2023/09/13 07:58:30;;;;;;;8.57;7.97;;;;;;;19.59;100.00;100125.81;4994765;28;20209;-81
2023/09/13 08:00:56;;;;;;;8.17;7.67;;;;;;;19.72;100.00;100125.91;4987020;28;20211;-79
2023/09/13 08:03:24;;;;;;;9.20;8.70;;;;;;;19.63;100.00;100135.25;5002133;28;20391;-79
2023/09/13 08:05:51;;;;;;;8.80;8.20;;;;;;;19.67;100.00;100118.22;5011548;28;20211;-79
2023/09/13 08:08:22;;;;;;;7.90;7.33;;;;;;;19.82;100.00;100127.03;5010734;28;20213;-79
2023/09/13 08:10:49;;;;;;;5.77;5.37;;;;;;;19.73;100.00;100152.31;5012033;28;20215;-77
2023/09/13 08:13:16;;;;;;;4.90;4.60;;;;;;;19.76;100.00;100191.84;5002583;28;20238;-78
2023/09/13 08:15:43;;;;;;;4.63;4.33;;;;;;;19.57;100.00;100207.13;4996627;28;20215;-76
2023/09/13 08:18:09;;;;;;;5.93;5.53;;;;;;;19.60;100.00;100169.84;4986343;28;20403;-79
2023/09/13 08:20:37;;;;;;;5.90;5.50;;;;;;;19.87;100.00;100163.84;4982745;28;20214;-79
2023/09/13 08:23:04;;;;;;;6.27;5.87;;;;;;;20.06;100.00;100169.72;4995910;28;20231;-79
2023/09/13 08:25:30;;;;;;;5.90;5.60;;;;;;;20.22;100.00;100182.84;4994656;28;20229;-81
2023/09/13 08:27:57;;;;;;;5.60;5.10;;;;;;;20.11;100.00;100215.31;5003081;28;20212;-80
2023/09/13 08:30:23;;;;;;;4.57;4.27;;;;;;;19.72;100.00;100224.78;4978313;28;20223;-80
2023/09/13 08:32:50;;;;;;;4.73;4.43;;;;;;;19.87;100.00;100209.72;4991438;28;20231;-79
2023/09/13 08:35:16;;;;;;;5.43;5.03;;;;;;;19.89;100.00;100207.84;4994614;28;20214;-78
2023/09/13 08:37:44;;;;;;;4.27;3.97;;;;;;;19.96;100.00;100206.53;4995747;28;20204;-81
2023/09/13 08:40:12;;;;;;;4.70;4.40;;;;;;;19.97;100.00;100208.22;4996103;28;20225;-80
2023/09/13 08:42:40;;;;;;;4.90;4.60;;;;;;;19.89;100.00;100244.06;4996172;28;20242;-80
2023/09/13 08:45:08;;;;;;;4.83;4.43;;;;;;;19.95;100.00;100255.16;4997240;28;20737;-81
2023/09/13 08:47:38;;;;;;;5.00;4.70;;;;;;;19.76;100.00;100271.31;4978724;28;20215;-79
2023/09/13 08:50:08;;;;;;;5.97;5.57;;;;;;;20.09;100.00;100272.00;4977464;28;20215;-78
2023/09/13 08:52:36;;;;;;;6.60;6.20;;;;;;;20.11;100.00;100297.47;4997228;28;20235;-80
2023/09/13 08:55:06;;;;;;;7.17;6.77;;;;;;;20.22;100.00;100288.88;4998203;28;20585;-79
2023/09/13 08:57:34;;;;;;;7.17;6.67;;;;;;;20.16;100.00;100297.19;4990079;28;20283;-77
2023/09/13 09:00:01;;;;;;;7.23;6.73;;;;;;;20.48;100.00;100281.09;4998500;28;20213;-81
2023/09/13 09:02:31;;;;;;;7.57;7.07;;;;;;;20.57;100.00;100280.50;4996952;28;20714;-79
2023/09/13 09:04:59;;;;;;;7.60;7.10;;;;;;;20.54;100.00;100281.53;4996747;28;20274;-78
2023/09/13 09:07:26;;;;;;;6.03;5.73;;;;;;;20.61;100.00;100282.03;4996083;28;20217;-78
2023/09/13 09:09:53;;;;;;;4.47;4.27;;;;;;;20.47;96.89;100340.34;4996589;28;20203;-80
2023/09/13 09:12:24;;;;;;;5.23;4.93;;;;;;;20.74;97.13;100337.81;4994183;28;20234;-78
2023/09/13 09:14:52;;;;;;;5.43;5.10;;;;;;;20.83;95.99;100353.13;4994800;28;20261;-78
2023/09/13 09:17:22;;;;;;;4.50;4.23;;;;;;;20.99;94.30;100366.28;4993396;28;20213;-79
2023/09/13 09:19:48;;;;;;;4.97;4.67;;;;;;;20.63;92.97;100412.75;4975817;28;20278;-78
2023/09/13 09:22:17;;;;;;;5.30;4.90;;;;;;;20.75;92.73;100406.72;4992888;28;20235;-78
2023/09/13 09:24:43;;;;;;;4.73;4.43;;;;;;;21.01;92.61;100407.72;4994563;28;20211;-80
2023/09/13 09:27:10;;;;;;;5.10;4.80;;;;;;;21.21;92.28;100416.22;4994932;28;20214;-80
2023/09/13 09:29:40;;;;;;;5.30;4.97;;;;;;;21.26;90.86;100435.34;4995062;28;20701;-77
2023/09/13 09:32:08;;;;;;;5.60;5.20;;;;;;;21.18;90.80;100443.81;4994318;28;20234;-78
2023/09/13 09:34:38;;;;;;;5.30;5.00;;;;;;;21.07;91.85;100432.16;4999376;28;20227;-78
2023/09/13 09:37:07;;;;;;;5.20;4.80;;;;;;;20.82;92.15;100415.97;4976504;28;20220;-77
2023/09/13 09:39:37;;;;;;;5.30;5.00;;;;;;;21.05;92.37;100410.16;4991578;28;20239;-77
2023/09/13 09:42:04;;;;;;;5.20;4.90;;;;;;;21.14;92.28;100410.44;4983473;28;20213;-78
2023/09/13 09:44:31;;;;;;;4.47;4.17;;;;;;;21.09;93.38;100382.47;4995339;28;20242;-78
2023/09/13 09:46:59;;;;;;;3.93;3.70;;;;;;;21.16;89.77;100434.25;4993099;28;20210;-78
2023/09/13 09:49:26;;;;;;;4.30;4.00;;;;;;;21.06;90.42;100441.94;4976206;28;20212;-77
2023/09/13 09:51:53;;;;;;;4.10;3.90;;;;;;;21.26;90.74;100421.25;4990112;28;20261;-79
2023/09/13 09:54:20;;;;;;;5.27;4.80;;;;;;;21.14;89.16;100446.75;4994851;28;20226;-78
2023/09/13 09:57:01;;;;;;;4.80;4.50;;;;;;;21.46;91.16;100427.94;4640799;28;10000137;-78
2023/09/13 09:59:47;;;;;;;5.27;4.93;;;;;;;21.44;91.71;100409.44;4984373;28;20235;-77
2023/09/13 10:02:27;;;;;;;5.07;4.77;;;;;;;21.26;91.67;100410.63;4983895;28;20206;-77
2023/09/13 10:04:53;;;;;;;4.80;4.50;;;;;;;21.42;91.62;100404.19;4982240;28;20218;-79
2023/09/13 10:07:20;;;;;;;4.93;4.53;;;;;;;21.49;89.18;100430.41;4984476;28;20210;-77
2023/09/13 10:09:48;;;;;;;5.17;4.87;;;;;;;21.49;88.53;100465.78;4982198;28;20212;-78
2023/09/13 10:12:15;;;;;;;5.10;4.80;;;;;;;21.59;88.56;100445.66;4991216;28;20233;-78
2023/09/13 10:14:45;;;;;;;4.43;4.23;;;;;;;21.82;89.69;100445.94;4988410;28;20632;-77
2023/09/13 10:17:12;;;;;;;5.60;5.30;;;;;;;21.96;89.47;100432.63;4974698;28;20211;-78
2023/09/13 10:19:42;;;;;;;5.70;5.40;;;;;;;21.99;88.48;100448.34;4972971;28;20207;-78
2023/09/13 10:22:11;;;;;;;5.47;5.03;;;;;;;21.88;86.94;100477.41;4989414;28;20206;-78
2023/09/13 10:24:44;;;;;;;5.30;4.90;;;;;;;21.84;87.19;100477.72;4995225;28;20874;-78
2023/09/13 10:27:12;;;;;;;5.00;4.70;;;;;;;21.93;85.58;100490.44;4996193;28;20199;-79
2023/09/13 10:29:41;;;;;;;5.53;5.13;;;;;;;21.82;85.60;100515.03;4997516;28;20208;-78
2023/09/13 10:32:09;;;;;;;6.20;5.80;;;;;;;21.88;87.69;100503.16;4997012;28;20291;-77
2023/09/13 10:34:39;;;;;;;5.80;5.50;;;;;;;22.00;88.50;100470.44;4993974;28;20263;-79
2023/09/13 10:37:12;;;;;;;5.90;5.50;;;;;;;22.10;88.29;100471.56;4996134;28;20207;-80
2023/09/13 10:39:43;;;;;;;3.50;3.30;;;;;;;;;;4986950;28;20199;-79
2023/09/13 10:42:10;;;;;;;1.77;1.67;;;;;;;21.07;95.30;100373.75;4997958;28;20214;-79
2023/09/13 10:44:38;;;;;;;1.37;1.27;;;;;;;21.01;98.16;100311.34;4997594;28;20231;-77
2023/09/13 10:47:05;;;;;;;1.33;1.33;;;;;;;20.64;100.00;100273.88;4998225;28;20208;-78
2023/09/13 10:49:33;;;;;;;1.50;1.40;;;;;;;20.46;100.00;100235.25;4978709;28;20215;-79
2023/09/13 10:52:00;;;;;;;1.40;1.30;;;;;;;20.44;100.00;100216.78;4992145;28;20234;-78
2023/09/13 10:54:31;;;;;;;1.53;1.43;;;;;;;20.50;100.00;100212.91;4997298;28;20576;-78
2023/09/13 10:56:58;;;;;;;1.27;1.20;;;;;;;20.41;100.00;100232.88;4997900;28;20213;-77
2023/09/13 10:59:26;;;;;;;2.27;2.07;;;;;;;20.14;100.00;100231.03;4996225;28;20780;-78
2023/09/13 11:01:52;;;;;;;3.10;2.90;;;;;;;20.11;100.00;100231.19;4996162;28;20246;-81
2023/09/13 11:04:21;;;;;;;2.90;2.80;;;;;;;20.17;100.00;100235.28;5001129;28;20731;-83
2023/09/13 11:06:49;;;;;;;3.80;3.60;;;;;;;19.69;100.00;100230.22;4975235;28;20585;-84
2023/09/13 11:09:17;;;;;;;4.80;4.50;;;;;;;19.77;100.00;100205.94;4984236;28;20205;-83
2023/09/13 11:11:51;;;;;;;4.20;4.00;;;;;;;19.79;100.00;100217.28;4994357;28;20704;-83
2023/09/13 11:14:24;;;;;;;3.70;3.50;;;;;;;19.69;100.00;100216.13;4995664;28;20225;-82
2023/09/13 11:16:53;;;;;;;5.27;4.87;;;;;;;19.76;100.00;100242.19;4994748;28;20201;-81
2023/09/13 11:19:26;;;;;;;5.60;5.30;;;;;;;19.63;100.00;100236.72;4994709;28;20206;-81
2023/09/13 11:21:57;;;;;;;7.40;6.90;;;;;;;19.54;100.00;100262.91;5007981;28;20745;-83
2023/09/13 11:24:39;;;;;;;9.40;8.70;;;;;;;19.33;100.00;100247.34;4996592;28;20275;-83